Time;durP1;ratioP1;P1;durP2;ratioP2;P2;SDS_P1;SDS_P2;PMS_P1;PMS_P2;Temp;Humidity;BMP_temperature;BMP_pressure;BME280_temperature;BME280_humidity;BME280_pressure;Samples;Min_cycle;Max_cycle;Signal;HPM_P1;HPM_P2
2023/10/16 00:00:29;;;;;;;6.22;0.82;;;;;;;4.38;100.00;101512.88;6102827;28;20119;-65
2023/10/16 00:03:22;;;;;;;3.05;0.70;;;;;;;4.36;100.00;101512.13;6121149;28;20033;-66
2023/10/16 00:06:17;;;;;;;1.33;0.57;;;;;;;4.23;100.00;101503.25;6120948;28;20067;-64
2023/10/16 00:09:21;;;;;;;2.03;0.82;;;;;;;4.29;100.00;101517.81;6120658;28;20051;-66
2023/10/16 00:12:19;;;;;;;2.35;0.75;;;;;;;4.21;100.00;101500.69;6120598;28;20029;-65
2023/10/16 00:15:16;;;;;;;3.47;0.80;;;;;;;4.34;100.00;101523.66;6123657;28;20052;-66
2023/10/16 00:18:18;;;;;;;3.63;0.95;;;;;;;4.24;100.00;101504.94;6120844;28;20040;-65
2023/10/16 00:21:13;;;;;;;3.47;0.82;;;;;;;4.31;100.00;101523.81;6118680;28;20033;-66
2023/10/16 00:24:09;;;;;;;2.22;0.73;;;;;;;4.33;100.00;101521.94;6121069;28;20392;-65
2023/10/16 00:27:05;;;;;;;2.05;0.80;;;;;;;4.34;100.00;101529.75;6120403;28;20068;-65
2023/10/16 00:30:00;;;;;;;5.70;1.00;;;;;;;4.18;100.00;101513.16;6119766;28;20064;-66
2023/10/16 00:32:56;;;;;;;4.63;0.90;;;;;;;4.28;100.00;101516.09;6120343;28;20070;-65
2023/10/16 00:35:53;;;;;;;5.53;1.38;;;;;;;4.21;100.00;101505.13;6121546;28;20111;-65
2023/10/16 00:38:51;;;;;;;3.70;0.90;;;;;;;4.15;100.00;101500.22;6125343;28;20587;-66
2023/10/16 00:41:46;;;;;;;3.58;0.90;;;;;;;4.27;100.00;101515.25;6124672;28;20479;-65
2023/10/16 00:44:42;;;;;;;6.55;1.65;;;;;;;4.26;100.00;101510.97;6125110;28;20028;-65
2023/10/16 00:47:39;;;;;;;3.10;1.05;;;;;;;4.18;100.00;101489.53;6126757;28;20032;-66
2023/10/16 00:50:35;;;;;;;6.45;1.17;;;;;;;4.17;100.00;101501.81;6130164;28;20528;-66
2023/10/16 00:53:31;;;;;;;5.43;0.97;;;;;;;4.21;100.00;101515.63;6129661;28;20033;-66
2023/10/16 00:56:29;;;;;;;4.32;1.20;;;;;;;4.22;100.00;101512.03;6124793;28;20031;-65
2023/10/16 00:59:24;;;;;;;3.17;1.05;;;;;;;4.18;100.00;101516.63;6111436;28;20031;-66
2023/10/16 01:02:30;;;;;;;8.73;1.38;;;;;;;4.09;100.00;101501.41;6106471;28;20071;-66
2023/10/16 01:05:27;;;;;;;6.75;1.23;;;;;;;4.03;100.00;101493.00;6129733;28;20143;-65
2023/10/16 01:08:25;;;;;;;5.85;1.10;;;;;;;4.00;100.00;101495.78;6124629;28;20106;-66
2023/10/16 01:11:20;;;;;;;4.22;1.17;;;;;;;4.06;100.00;101492.84;6124267;28;20147;-65
2023/10/16 01:14:16;;;;;;;4.13;1.00;;;;;;;3.97;100.00;101490.72;6124681;28;20391;-66
2023/10/16 01:17:12;;;;;;;9.10;1.77;;;;;;;4.00;100.00;101487.94;6124368;28;20360;-65
2023/10/16 01:20:08;;;;;;;8.25;1.30;;;;;;;4.03;100.00;101496.47;6124015;28;20035;-65
2023/10/16 01:23:04;;;;;;;2.58;1.23;;;;;;;4.06;100.00;101500.72;6121964;28;20451;-65
2023/10/16 01:26:01;;;;;;;3.95;1.17;;;;;;;3.98;100.00;101493.28;6124075;28;20064;-65
2023/10/16 01:28:56;;;;;;;5.35;1.13;;;;;;;3.96;100.00;101496.91;6124385;28;20032;-65
2023/10/16 01:31:52;;;;;;;4.63;1.30;;;;;;;3.94;100.00;101504.03;6123824;28;20086;-65
2023/10/16 01:34:47;;;;;;;8.70;1.50;;;;;;;3.91;100.00;101493.72;6123959;28;20058;-65
2023/10/16 01:37:42;;;;;;;4.37;1.20;;;;;;;3.90;100.00;101489.38;6129887;28;20391;-66
2023/10/16 01:40:38;;;;;;;4.82;1.45;;;;;;;3.94;100.00;101499.59;6122854;28;20643;-65
2023/10/16 01:43:34;;;;;;;9.67;1.20;;;;;;;3.96;100.00;101496.91;6124223;28;20041;-65
2023/10/16 01:46:29;;;;;;;3.65;1.33;;;;;;;3.90;100.00;101489.38;6123761;28;20511;-65
2023/10/16 01:49:25;;;;;;;5.53;1.60;;;;;;;3.96;100.00;101496.91;6122588;28;20090;-66
2023/10/16 01:52:22;;;;;;;3.80;1.30;;;;;;;4.03;100.00;101503.50;6123670;28;20032;-66
2023/10/16 01:55:17;;;;;;;5.63;1.40;;;;;;;3.98;100.00;101495.03;6131231;28;20442;-65
2023/10/16 01:58:15;;;;;;;3.15;1.00;;;;;;;4.00;100.00;101496.66;6105770;28;20028;-65
2023/10/16 02:01:16;;;;;;;3.55;1.17;;;;;;;3.98;100.00;101497.66;6123316;28;20501;-66
2023/10/16 02:04:12;;;;;;;3.33;1.05;;;;;;;3.91;100.00;101481.44;6104835;28;20040;-65
2023/10/16 02:07:08;;;;;;;5.75;1.27;;;;;;;3.93;100.00;101481.34;6115401;28;20492;-66
2023/10/16 02:10:05;;;;;;;4.50;1.33;;;;;;;3.80;100.00;101467.22;6122825;28;20060;-65
2023/10/16 02:13:00;;;;;;;4.55;1.30;;;;;;;3.90;100.00;101484.13;6123202;28;20040;-65
2023/10/16 02:15:55;;;;;;;4.50;1.40;;;;;;;3.86;100.00;101477.38;6122907;28;20060;-66
2023/10/16 02:18:51;;;;;;;5.87;2.47;;;;;;;3.94;100.00;101490.91;6131639;28;20032;-66
2023/10/16 02:21:46;;;;;;;5.00;2.20;;;;;;;3.81;100.00;101474.13;6121165;28;20032;-66
2023/10/16 02:24:44;;;;;;;17.35;2.58;;;;;;;3.78;100.00;101474.31;6122851;28;20028;-66
2023/10/16 02:27:41;;;;;;;6.90;1.17;;;;;;;3.83;100.00;101480.16;6122991;28;20032;-66
2023/10/16 02:30:38;;;;;;;3.70;0.90;;;;;;;3.81;100.00;101480.22;6107296;28;20036;-65
2023/10/16 02:33:35;;;;;;;4.43;1.00;;;;;;;3.82;100.00;101481.94;6122442;28;20067;-65
2023/10/16 02:36:31;;;;;;;6.32;1.30;;;;;;;3.87;100.00;101485.16;6122729;28;20071;-65
2023/10/16 02:39:36;;;;;;;4.40;1.10;;;;;;;3.87;100.00;101484.28;6124243;28;20093;-65
2023/10/16 02:42:31;;;;;;;4.20;1.40;;;;;;;3.94;100.00;101493.53;6126049;28;20040;-66
2023/10/16 02:45:27;;;;;;;3.20;0.77;;;;;;;3.89;100.00;101477.19;6122309;28;20078;-65
2023/10/16 02:48:23;;;;;;;4.63;1.37;;;;;;;3.99;100.00;101483.63;6087569;28;20392;-65
2023/10/16 02:51:18;;;;;;;4.93;1.10;;;;;;;3.98;100.00;101484.56;6129123;28;20277;-65
2023/10/16 02:54:13;;;;;;;5.70;1.20;;;;;;;4.01;100.00;101487.00;6122725;28;20024;-65
2023/10/16 02:57:10;;;;;;;7.37;1.20;;;;;;;3.95;100.00;101469.81;6121887;28;20071;-66
2023/10/16 03:00:07;;;;;;;7.10;1.55;;;;;;;4.01;100.00;101482.63;6121371;28;20032;-66
2023/10/16 03:03:05;;;;;;;3.55;1.13;;;;;;;4.07;100.00;101481.44;6122234;28;20017;-65
2023/10/16 03:06:03;;;;;;;4.75;1.10;;;;;;;4.08;100.00;101477.84;6122022;28;20432;-66
2023/10/16 03:09:25;;;;;;;2.67;1.10;;;;;;;4.03;100.00;101474.63;6122014;28;20024;-66
2023/10/16 03:12:14;;;;;;;2.28;1.00;;;;;;;4.09;100.00;101484.81;6121238;28;20476;-65
2023/10/16 03:15:15;;;;;;;8.87;1.03;;;;;;;4.01;100.00;101471.25;6121818;28;20035;-66
2023/10/16 03:18:16;;;;;;;;;;;;;;;4.04;100.00;101478.97;6121830;28;20033;-67
2023/10/16 03:24:09;;;;;;;2.05;0.80;;;;;;;3.92;100.00;101474.38;6121239;28;20051;-66
2023/10/16 03:27:08;;;;;;;5.57;1.08;;;;;;;3.92;100.00;101471.75;6121098;28;20033;-65
2023/10/16 03:30:04;;;;;;;3.13;1.10;;;;;;;3.95;100.00;101484.72;6092513;28;20041;-65
2023/10/16 03:33:03;;;;;;;3.63;1.25;;;;;;;3.90;100.00;101479.72;6120545;28;20016;-66
2023/10/16 03:35:58;;;;;;;6.57;1.20;;;;;;;3.90;100.00;101473.63;6121484;28;20021;-67
2023/10/16 03:38:57;;;;;;;6.63;0.90;;;;;;;3.85;100.00;101473.03;6121081;28;20062;-66
2023/10/16 03:41:52;;;;;;;3.35;1.00;;;;;;;3.85;100.00;101475.66;6121131;28;20059;-66
2023/10/16 03:44:49;;;;;;;3.70;1.00;;;;;;;3.88;100.00;101486.84;6121410;28;20060;-66
2023/10/16 03:47:45;;;;;;;4.47;1.10;;;;;;;3.84;100.00;101481.84;6120926;28;20095;-67
2023/10/16 03:50:42;;;;;;;6.85;0.82;;;;;;;3.79;100.00;101476.84;6120427;28;20525;-66
2023/10/16 03:53:38;;;;;;;5.03;0.80;;;;;;;3.85;100.00;101480.91;6120988;28;20476;-66
2023/10/16 03:56:35;;;;;;;6.80;1.58;;;;;;;3.79;100.00;101478.63;6120936;28;20040;-66
2023/10/16 03:59:31;;;;;;;3.05;1.08;;;;;;;3.75;100.00;101474.50;6120561;28;20390;-66
2023/10/16 04:02:31;;;;;;;8.18;1.50;;;;;;;3.81;100.00;101482.84;6122033;28;20028;-67
2023/10/16 04:08:40;;;;;;;4.35;1.10;;;;;;;3.75;100.00;101484.97;6116162;28;20146;-67
2023/10/16 04:11:37;;;;;;;2.93;1.37;;;;;;;3.71;100.00;101472.94;6119713;28;20037;-66
2023/10/16 04:14:55;;;;;;;8.90;1.95;;;;;;;3.72;100.00;101479.91;6120757;28;20024;-66
2023/10/16 04:18:04;;;;;;;3.20;1.83;;;;;;;3.78;100.00;101482.19;6120934;28;20107;-66
2023/10/16 04:24:30;;;;;;;2.22;0.90;;;;;;;3.73;100.00;101476.31;6120250;28;20510;-66
2023/10/16 04:27:29;;;;;;;4.80;1.30;;;;;;;3.71;100.00;101478.19;6122809;28;20036;-66
2023/10/16 04:33:48;;;;;;;8.27;1.13;;;;;;;3.65;100.00;101468.88;6127628;28;20119;-65
2023/10/16 04:36:53;;;;;;;4.35;1.40;;;;;;;3.75;100.00;101479.75;6119846;28;20120;-66
2023/10/16 04:43:03;;;;;;;5.55;1.27;;;;;;;3.90;100.00;101484.97;6120324;28;20127;-65
2023/10/16 04:46:16;;;;;;;5.05;1.27;;;;;;;3.98;100.00;101480.16;6120645;28;20158;-66
2023/10/16 04:49:14;;;;;;;4.75;1.35;;;;;;;4.07;100.00;101484.06;6120186;28;20036;-66
2023/10/16 04:52:35;;;;;;;2.50;1.17;;;;;;;4.13;100.00;101486.34;6120050;28;20037;-65
2023/10/16 04:58:38;;;;;;;6.00;1.10;;;;;;;4.14;100.00;101477.50;6120074;28;20037;-66
2023/10/16 05:01:55;;;;;;;4.60;1.00;;;;;;;4.26;100.00;101491.72;6120030;28;20029;-65
2023/10/16 05:04:59;;;;;;;5.57;1.45;;;;;;;4.27;100.00;101489.00;6120179;28;20047;-66
2023/10/16 05:08:13;;;;;;;3.90;1.00;;;;;;;4.35;100.00;101485.97;6120426;28;20468;-66
2023/10/16 05:17:57;;;;;;;5.18;1.50;;;;;;;4.52;100.00;101481.44;6120229;28;20037;-66
2023/10/16 05:21:15;;;;;;;6.53;1.35;;;;;;;4.58;100.00;101467.09;6117522;28;20037;-66
2023/10/16 06:15:52;;;;;;;7.78;2.25;;;;;;;5.27;100.00;101493.59;6116025;28;20032;-66
2023/10/16 06:18:48;;;;;;;7.43;2.10;;;;;;;5.28;100.00;101496.13;6127604;28;20064;-66
2023/10/16 06:21:47;;;;;;;4.50;1.80;;;;;;;5.17;100.00;101459.13;6115891;28;20044;-66
2023/10/16 06:24:47;;;;;;;8.88;2.63;;;;;;;5.40;100.00;101491.91;6124289;28;20063;-64
2023/10/16 06:27:42;;;;;;;5.15;1.80;;;;;;;5.38;100.00;101485.91;6126893;28;20024;-65
2023/10/16 06:30:38;;;;;;;4.30;1.90;;;;;;;5.53;100.00;101495.47;6121015;28;20392;-65
2023/10/16 06:33:33;;;;;;;3.80;1.80;;;;;;;5.50;100.00;101485.13;6121799;28;20037;-68
2023/10/16 06:36:28;;;;;;;6.53;2.33;;;;;;;5.65;100.00;101502.63;6119507;28;20028;-66
2023/10/16 06:39:28;;;;;;;3.92;2.13;;;;;;;5.71;100.00;101515.38;6122404;28;20047;-65
2023/10/16 06:42:23;;;;;;;8.95;2.40;;;;;;;5.76;100.00;101509.84;6112321;28;20040;-65
2023/10/16 06:45:19;;;;;;;4.72;2.22;;;;;;;5.73;100.00;101505.63;6121694;28;20040;-67
2023/10/16 06:48:15;;;;;;;4.75;2.15;;;;;;;5.85;100.00;101511.91;6119976;28;20025;-65
2023/10/16 06:51:14;;;;;;;4.82;2.10;;;;;;;5.94;100.00;101517.47;6122502;28;20033;-65
2023/10/16 06:54:10;;;;;;;10.65;2.72;;;;;;;5.94;100.00;101522.72;6130083;28;20143;-66
2023/10/16 06:57:12;;;;;;;6.63;2.33;;;;;;;6.07;100.00;101514.03;6121229;28;20467;-66
2023/10/16 07:00:09;;;;;;;15.52;2.47;;;;;;;6.05;100.00;101508.03;6121162;28;20039;-66
2023/10/16 07:03:12;;;;;;;5.30;2.30;;;;;;;6.18;100.00;101514.19;6121930;28;20029;-66
2023/10/16 07:06:08;;;;;;;5.40;2.13;;;;;;;6.22;100.00;101513.06;6123351;28;20032;-65
2023/10/16 07:09:03;;;;;;;6.45;2.17;;;;;;;6.31;100.00;101523.00;6120946;28;20071;-66
2023/10/16 07:12:03;;;;;;;6.23;2.50;;;;;;;6.39;100.00;101518.06;6120711;28;20426;-65
2023/10/16 07:15:01;;;;;;;5.32;2.45;;;;;;;6.37;100.00;101526.09;6118801;28;20271;-65
2023/10/16 07:18:03;;;;;;;4.25;2.38;;;;;;;6.31;100.00;101502.78;6122271;28;20166;-65
2023/10/16 07:23:53;;;;;;;7.60;2.30;;;;;;;6.55;100.00;101524.03;6121026;28;20047;-66
2023/10/16 07:26:50;;;;;;;5.65;2.15;;;;;;;6.56;100.00;101516.03;6130625;28;20032;-65
2023/10/16 07:29:45;;;;;;;7.70;2.47;;;;;;;6.62;100.00;101514.81;6120951;28;20060;-65
2023/10/16 07:32:42;;;;;;;6.47;2.37;;;;;;;6.62;100.00;101504.25;6125478;28;20386;-66
2023/10/16 07:35:37;;;;;;;6.50;2.38;;;;;;;6.76;100.00;101522.66;6128907;28;20559;-65
2023/10/16 07:38:33;;;;;;;5.82;2.70;;;;;;;6.90;100.00;101524.38;6116303;28;20032;-65
2023/10/16 07:41:28;;;;;;;7.53;2.30;;;;;;;7.07;100.00;101522.25;6127374;28;20023;-67
2023/10/16 07:44:27;;;;;;;9.50;2.40;;;;;;;7.15;100.00;101512.03;6104352;28;20044;-65
2023/10/16 07:47:22;;;;;;;4.53;2.35;;;;;;;7.21;100.00;101513.41;6124517;28;20483;-65
2023/10/16 07:50:19;;;;;;;6.67;2.30;;;;;;;7.31;100.00;101526.84;6128801;28;20028;-65
2023/10/16 07:53:17;;;;;;;5.68;2.10;;;;;;;7.30;100.00;101525.97;6135011;28;20031;-65
2023/10/16 07:59:19;;;;;;;3.47;1.90;;;;;;;7.37;100.00;101518.47;6126923;28;20036;-65
2023/10/16 08:02:17;;;;;;;5.13;1.80;;;;;;;7.44;100.00;101530.31;6126303;28;20025;-65
2023/10/16 08:05:16;;;;;;;4.32;1.70;;;;;;;7.49;100.00;101525.56;6128789;28;20029;-65
2023/10/16 08:08:11;;;;;;;4.63;2.17;;;;;;;7.65;100.00;101523.53;6131893;28;20040;-65
2023/10/16 08:11:12;;;;;;;5.30;1.38;;;;;;;7.65;100.00;101515.63;6126284;28;20451;-65
2023/10/16 08:14:09;;;;;;;3.72;1.63;;;;;;;7.84;100.00;101529.22;6126662;28;20020;-65
2023/10/16 08:17:04;;;;;;;4.88;1.70;;;;;;;7.75;100.00;101524.56;6126388;28;20082;-65
2023/10/16 08:19:59;;;;;;;5.60;1.70;;;;;;;7.78;100.00;101524.34;6130700;28;20463;-66
2023/10/16 08:22:55;;;;;;;7.30;2.23;;;;;;;7.85;100.00;101530.91;6122025;28;20042;-66
2023/10/16 08:25:50;;;;;;;5.60;1.63;;;;;;;7.79;100.00;101529.56;6126352;28;20043;-65
2023/10/16 08:28:46;;;;;;;6.03;1.80;;;;;;;7.87;100.00;101538.72;6136510;28;20078;-65
2023/10/16 08:31:42;;;;;;;4.40;2.17;;;;;;;7.84;100.00;101529.22;6133401;28;20044;-65
2023/10/16 08:34:40;;;;;;;4.47;1.77;;;;;;;7.83;100.00;101529.34;6125006;28;20032;-66
2023/10/16 08:37:40;;;;;;;5.03;1.40;;;;;;;7.97;100.00;101531.81;6125313;28;20128;-65
2023/10/16 08:40:39;;;;;;;4.28;1.20;;;;;;;8.05;100.00;101525.03;6115582;28;20035;-65
2023/10/16 08:43:53;;;;;;;5.70;1.70;;;;;;;8.16;100.00;101524.25;6127138;28;20463;-65
2023/10/16 08:49:55;;;;;;;4.55;1.35;;;;;;;8.19;100.00;101514.31;6136950;28;20037;-65
2023/10/16 08:52:57;;;;;;;4.13;1.48;;;;;;;8.46;100.00;101535.28;6112579;28;20539;-65
2023/10/16 08:55:56;;;;;;;4.10;1.40;;;;;;;8.64;100.00;101541.03;6125759;28;20043;-65
2023/10/16 08:58:55;;;;;;;2.95;1.45;;;;;;;8.60;100.00;101543.06;6120843;28;20028;-65
2023/10/16 09:01:51;;;;;;;3.60;1.83;;;;;;;8.75;100.00;101539.25;6108402;28;20483;-65
2023/10/16 09:04:52;;;;;;;3.00;1.23;;;;;;;8.89;100.00;101540.88;6107598;28;20039;-66
2023/10/16 09:07:51;;;;;;;4.78;1.65;;;;;;;8.86;100.00;101551.69;6125297;28;20036;-64
2023/10/16 09:10:47;;;;;;;4.65;1.30;;;;;;;9.02;100.00;101546.97;6130141;28;20039;-65
2023/10/16 09:13:49;;;;;;;5.10;2.20;;;;;;;8.97;100.00;101549.06;6106849;28;20033;-65
2023/10/16 09:16:51;;;;;;;3.88;1.60;;;;;;;8.93;100.00;101556.41;6125446;28;20027;-65
2023/10/16 09:19:48;;;;;;;6.32;1.60;;;;;;;8.92;100.00;101548.59;6134837;28;20032;-65
2023/10/16 09:22:46;;;;;;;7.60;1.90;;;;;;;8.86;100.00;101551.69;6131367;28;20035;-65
2023/10/16 09:25:43;;;;;;;4.15;1.95;;;;;;;9.02;100.00;101554.03;6110786;28;20135;-65
2023/10/16 09:28:38;;;;;;;4.47;1.70;;;;;;;9.06;100.00;101548.41;6127310;28;20036;-65
2023/10/16 09:31:34;;;;;;;5.10;1.63;;;;;;;9.11;100.00;101545.41;6132799;28;20032;-66
2023/10/16 09:34:30;;;;;;;4.03;1.93;;;;;;;8.93;100.00;101537.06;6132553;28;20030;-66
2023/10/16 09:37:29;;;;;;;5.53;2.53;;;;;;;9.02;100.00;101541.66;6132537;28;20067;-65
2023/10/16 09:40:44;;;;;;;6.97;2.22;;;;;;;9.25;100.00;101548.69;6140916;28;20032;-65
2023/10/16 09:43:40;;;;;;;6.15;1.70;;;;;;;9.13;100.00;101523.16;6108538;28;20249;-66
2023/10/16 09:49:37;;;;;;;4.50;2.00;;;;;;;9.11;100.00;101518.94;6130247;28;20043;-66
2023/10/16 09:52:33;;;;;;;3.77;2.03;;;;;;;9.14;100.00;101550.47;6131596;28;20043;-66
2023/10/16 09:55:30;;;;;;;5.63;2.05;;;;;;;8.97;100.00;101549.06;6129701;28;20258;-65
2023/10/16 09:58:30;;;;;;;5.80;2.42;;;;;;;9.06;100.00;101552.84;6110366;28;20111;-66
2023/10/16 10:01:29;;;;;;;5.25;2.90;;;;;;;9.17;100.00;101553.72;6117158;28;20028;-65
2023/10/16 10:04:24;;;;;;;9.30;2.78;;;;;;;9.38;100.00;101552.06;6112515;28;20024;-66
2023/10/16 10:07:22;;;;;;;6.72;2.47;;;;;;;9.75;100.00;101555.38;6115603;28;20554;-67
2023/10/16 10:13:34;;;;;;;6.30;2.42;;;;;;;9.88;100.00;101556.09;6128603;28;20028;-65
2023/10/16 10:16:29;;;;;;;4.80;2.13;;;;;;;9.78;100.00;101541.06;6111657;28;20060;-66
2023/10/16 10:19:35;;;;;;;7.32;2.10;;;;;;;9.59;100.00;101544.31;6132978;28;20050;-66
2023/10/16 10:22:35;;;;;;;4.20;2.20;;;;;;;9.49;100.00;101553.91;6131865;28;20382;-65
2023/10/16 10:25:41;;;;;;;6.05;1.77;;;;;;;9.44;100.00;101559.56;6132442;28;20036;-66
2023/10/16 10:28:38;;;;;;;4.13;2.10;;;;;;;9.53;100.00;101558.84;6123966;28;20036;-65
2023/10/16 10:31:33;;;;;;;4.30;2.20;;;;;;;9.73;100.00;101564.41;6131088;28;20120;-66
2023/10/16 10:34:28;;;;;;;5.93;2.50;;;;;;;9.73;100.00;101559.13;6129798;28;20032;-66
2023/10/16 10:37:47;;;;;;;5.40;2.33;;;;;;;9.88;100.00;101552.59;6131160;28;20025;-66
2023/10/16 10:41:10;;;;;;;4.43;1.95;;;;;;;10.18;100.00;101554.66;6129057;28;20062;-68
2023/10/16 10:44:08;;;;;;;3.92;2.17;;;;;;;10.62;100.00;101550.09;6133654;28;20056;-65
2023/10/16 10:47:24;;;;;;;7.18;2.50;;;;;;;10.96;100.00;101531.38;6126409;28;20119;-66
2023/10/16 10:50:21;;;;;;;4.10;2.60;;;;;;;10.90;100.00;101537.22;6125795;28;20039;-67
2023/10/16 10:53:16;;;;;;;3.78;2.40;;;;;;;11.14;100.00;101543.94;6133388;28;20103;-66
2023/10/16 10:56:12;;;;;;;4.40;2.00;;;;;;;11.22;100.00;101533.50;6135188;28;20024;-66
2023/10/16 10:59:10;;;;;;;4.32;2.17;;;;;;;11.20;100.00;101535.47;6128904;28;20330;-68
2023/10/16 11:02:22;;;;;;;3.58;1.70;;;;;;;11.19;100.00;101519.66;6127968;28;20020;-67
2023/10/16 11:05:23;;;;;;;3.05;1.63;;;;;;;11.02;100.00;101525.56;6119897;28;20036;-66
2023/10/16 11:08:22;;;;;;;5.25;2.20;;;;;;;10.57;100.00;101517.78;6135321;28;20032;-66
2023/10/16 11:11:17;;;;;;;5.65;2.47;;;;;;;10.23;100.00;101524.16;6127427;28;20483;-66
2023/10/16 11:14:13;;;;;;;6.83;2.80;;;;;;;9.90;100.00;101509.13;6131891;28;20028;-67
2023/10/16 11:17:09;;;;;;;4.90;2.72;;;;;;;9.98;100.00;101532.34;6134075;28;20040;-66
2023/10/16 11:23:15;;;;;;;5.90;2.60;;;;;;;9.63;100.00;101523.69;6113819;28;20354;-66
2023/10/16 11:26:16;;;;;;;8.73;3.35;;;;;;;9.30;100.00;101525.34;6105217;28;20028;-67
2023/10/16 11:29:12;;;;;;;7.93;3.97;;;;;;;9.07;100.00;101512.22;6105551;28;20047;-67
2023/10/16 11:32:09;;;;;;;6.43;3.08;;;;;;;8.94;100.00;101528.19;6131519;28;20032;-67
2023/10/16 11:35:14;;;;;;;7.70;3.08;;;;;;;8.83;100.00;101526.31;6138319;28;20032;-67
2023/10/16 11:38:13;;;;;;;8.05;3.20;;;;;;;8.70;100.00;101512.31;6130089;28;20094;-67
2023/10/16 11:41:19;;;;;;;7.53;3.28;;;;;;;8.64;100.00;101496.09;6127751;28;20036;-67
2023/10/16 11:44:16;;;;;;;12.20;5.57;;;;;;;8.66;100.00;101520.59;6129003;28;20021;-66
2023/10/16 11:47:18;;;;;;;6.22;3.42;;;;;;;8.77;100.00;101518.84;6132209;28;20028;-66
2023/10/16 11:50:17;;;;;;;7.90;4.13;;;;;;;9.10;100.00;101514.63;6129055;28;20036;-67
2023/10/16 11:53:14;;;;;;;6.80;3.42;;;;;;;9.36;100.00;101509.00;6121094;28;20079;-66
2023/10/16 11:56:12;;;;;;;6.72;2.90;;;;;;;9.43;100.00;101489.03;6127855;28;20060;-66
2023/10/16 11:59:12;;;;;;;5.82;3.30;;;;;;;9.92;100.00;101511.66;6120951;28;20024;-66
2023/10/16 12:02:14;;;;;;;8.93;3.05;;;;;;;10.38;100.00;101503.53;6127975;28;20033;-66
2023/10/16 12:05:11;;;;;;;5.13;2.78;;;;;;;10.72;100.00;101508.56;6123266;28;20025;-67
2023/10/16 12:08:08;;;;;;;5.05;2.35;;;;;;;10.57;100.00;101499.22;6131269;28;20032;-67
2023/10/16 12:11:04;;;;;;;6.07;2.60;;;;;;;10.60;100.00;101501.63;6125823;28;20032;-66
2023/10/16 12:13:59;;;;;;;4.93;1.95;;;;;;;10.38;100.00;101509.66;6138259;28;20032;-66
2023/10/16 12:16:57;;;;;;;3.40;1.70;;;;;;;10.01;100.00;101500.31;6128182;28;20044;-66
2023/10/16 12:19:52;;;;;;;4.00;2.05;;;;;;;9.77;100.00;101508.41;6119188;28;20044;-66
2023/10/16 12:22:49;;;;;;;5.35;0.95;;;;;;;9.52;100.00;101512.16;6127312;28;20077;-66
2023/10/16 12:25:45;;;;;;;5.82;1.88;;;;;;;9.51;100.00;101523.69;6125158;28;20037;-66
2023/10/16 12:28:41;;;;;;;5.35;2.50;;;;;;;9.42;100.00;101513.00;6123617;28;20036;-66
2023/10/16 12:31:36;;;;;;;5.17;2.13;;;;;;;9.30;100.00;101517.41;6133823;28;20083;-66
2023/10/16 12:34:32;;;;;;;3.97;1.60;;;;;;;9.28;100.00;101516.69;6126931;28;20124;-66
2023/10/16 12:37:28;;;;;;;3.97;1.48;;;;;;;9.07;100.00;101496.34;6127464;28;20041;-65
2023/10/16 12:40:37;;;;;;;3.63;1.67;;;;;;;9.14;100.00;101508.97;6123428;28;20044;-67
2023/10/16 12:43:32;;;;;;;5.95;2.10;;;;;;;8.92;100.00;101467.44;6126397;28;20032;-67
2023/10/16 12:46:27;;;;;;;3.63;1.80;;;;;;;9.15;100.00;101504.53;6126411;28;20021;-67
2023/10/16 12:49:23;;;;;;;5.30;2.25;;;;;;;9.19;100.00;101500.66;6132130;28;20262;-65
2023/10/16 12:52:18;;;;;;;3.67;1.70;;;;;;;9.19;100.00;101493.59;6124783;28;20421;-66
2023/10/16 12:55:16;;;;;;;10.23;2.80;;;;;;;9.20;100.00;101460.88;6125680;28;20039;-66
2023/10/16 12:58:11;;;;;;;5.95;2.75;;;;;;;9.67;100.00;101490.72;6124002;28;20040;-66
2023/10/16 13:01:10;;;;;;;6.50;2.50;;;;;;;9.87;100.00;101477.56;6121749;28;20044;-65
2023/10/16 13:04:15;;;;;;;5.13;1.75;;;;;;;10.18;100.00;101491.91;6125062;28;20055;-67
2023/10/16 13:07:11;;;;;;;5.68;1.92;;;;;;;10.48;100.00;101486.75;6126730;28;20028;-66
2023/10/16 13:10:08;;;;;;;5.43;1.90;;;;;;;10.73;100.00;101481.06;6132794;28;20044;-66
2023/10/16 13:13:03;;;;;;;7.25;1.20;;;;;;;10.96;100.00;101484.44;6127830;28;20029;-66
2023/10/16 13:15:59;;;;;;;5.90;2.00;;;;;;;11.03;100.00;101485.63;6120269;28;20535;-66
2023/10/16 13:18:57;;;;;;;3.50;1.20;;;;;;;11.14;100.00;101490.84;6133332;28;20083;-68
2023/10/16 13:21:53;;;;;;;4.47;1.40;;;;;;;11.26;100.00;101460.59;6124936;28;20040;-65
2023/10/16 13:24:48;;;;;;;1.77;1.13;;;;;;;11.36;100.00;101472.09;6125706;28;20041;-67
2023/10/16 13:27:44;;;;;;;2.03;0.87;;;;;;;11.50;100.00;101472.72;6123871;28;20032;-67
2023/10/16 13:30:39;;;;;;;1.85;0.80;;;;;;;11.53;100.00;101483.94;6131822;28;20082;-66
2023/10/16 13:33:40;;;;;;;2.80;1.10;;;;;;;11.48;100.00;101480.84;6112985;28;20039;-68
2023/10/16 13:36:39;;;;;;;2.97;1.33;;;;;;;11.54;100.00;101475.00;6133411;28;20028;-66
2023/10/16 13:39:41;;;;;;;1.25;0.60;;;;;;;11.52;100.00;101484.06;6141113;28;20388;-67
2023/10/16 13:42:36;;;;;;;2.90;0.80;;;;;;;11.45;100.00;101477.59;6135260;28;20031;-67
2023/10/16 13:45:32;;;;;;;1.93;0.67;;;;;;;11.41;100.00;101468.22;6130175;28;20028;-67
2023/10/16 13:48:28;;;;;;;3.20;0.70;;;;;;;11.14;100.00;101479.41;6137739;28;20029;-66
2023/10/16 13:51:24;;;;;;;2.28;0.90;;;;;;;10.88;100.00;101486.91;6128945;28;20031;-68
2023/10/16 13:54:20;;;;;;;1.77;0.80;;;;;;;10.57;100.00;101472.69;6130041;28;20020;-66
2023/10/16 13:57:15;;;;;;;3.55;1.00;;;;;;;10.50;100.00;101476.84;6122595;28;20021;-67
2023/10/16 14:03:46;;;;;;;3.88;1.52;;;;;;;10.45;100.00;101472.88;6028564;28;20034;-66
2023/10/16 14:06:46;;;;;;;4.57;1.30;;;;;;;10.32;100.00;101480.16;6028223;28;20089;-67
2023/10/16 14:09:42;;;;;;;4.28;1.63;;;;;;;10.37;100.00;101483.28;6116590;28;20267;-66
2023/10/16 14:12:37;;;;;;;3.25;1.13;;;;;;;10.37;100.00;101475.31;6133915;28;20029;-68
2023/10/16 14:15:33;;;;;;;2.55;1.10;;;;;;;10.56;100.00;101488.75;6124594;28;20032;-66
2023/10/16 14:18:32;;;;;;;2.65;0.88;;;;;;;10.56;100.00;101481.66;6129768;28;20039;-67
2023/10/16 14:21:28;;;;;;;5.05;1.02;;;;;;;10.51;100.00;101475.03;6128864;28;20090;-66
2023/10/16 14:24:25;;;;;;;3.27;1.30;;;;;;;10.38;100.00;101488.44;6130306;28;20475;-67
2023/10/16 14:27:24;;;;;;;1.83;1.05;;;;;;;10.27;100.00;101471.75;6135238;28;20020;-67
2023/10/16 14:30:25;;;;;;;2.97;1.20;;;;;;;10.34;100.00;101492.31;6128565;28;20479;-66
2023/10/16 14:33:25;;;;;;;3.08;1.73;;;;;;;9.93;100.00;101487.69;6132568;28;20427;-66
2023/10/16 14:36:24;;;;;;;5.30;1.83;;;;;;;9.78;100.00;101488.09;6129616;28;20039;-66
2023/10/16 14:39:29;;;;;;;14.80;6.40;;;;;;;9.61;100.00;101493.84;6126730;28;20033;-67
2023/10/16 14:42:24;;;;;;;5.43;1.80;;;;;;;9.36;100.00;101476.41;6135299;28;20039;-66
2023/10/16 14:45:23;;;;;;;5.73;1.20;;;;;;;9.30;100.00;101479.50;6121273;28;20032;-67
2023/10/16 14:48:18;;;;;;;3.42;1.25;;;;;;;9.27;100.00;101488.53;6124177;28;20327;-66
2023/10/16 14:51:18;;;;;;;4.68;1.45;;;;;;;8.99;100.00;101449.31;6128355;28;20434;-66
2023/10/16 14:54:14;;;;;;;2.70;1.20;;;;;;;9.15;100.00;101488.66;6119449;28;20039;-67
2023/10/16 14:57:09;;;;;;;2.78;1.27;;;;;;;9.14;100.00;101479.88;6090781;28;20028;-66
2023/10/16 15:00:05;;;;;;;3.65;1.20;;;;;;;9.17;100.00;101482.28;6127166;28;20039;-67
2023/10/16 15:03:10;;;;;;;4.28;1.98;;;;;;;9.20;100.00;101483.84;6120512;28;20483;-66
2023/10/16 15:06:08;;;;;;;5.32;2.33;;;;;;;9.16;100.00;101475.28;6131150;28;20044;-66
2023/10/16 15:09:09;;;;;;;3.72;1.60;;;;;;;9.19;100.00;101469.75;6125328;28;20028;-66
2023/10/16 15:12:07;;;;;;;2.65;1.00;;;;;;;9.10;100.00;101470.50;6108174;28;20028;-66
2023/10/16 15:15:04;;;;;;;3.28;1.20;;;;;;;9.10;100.00;101478.44;6109777;28;20112;-66
2023/10/16 15:18:04;;;;;;;2.45;1.20;;;;;;;9.01;100.00;101470.34;6119000;28;20029;-67
2023/10/16 15:21:00;;;;;;;2.38;1.20;;;;;;;9.17;100.00;101486.72;6120113;28;20170;-66
2023/10/16 15:23:56;;;;;;;2.03;0.65;;;;;;;9.15;100.00;101491.28;6125244;28;20585;-66
2023/10/16 15:26:51;;;;;;;3.60;0.90;;;;;;;9.13;100.00;101485.28;6119867;28;20056;-67